createdAt,value
2023-01-25T00:01:56.273Z,102637.91
2023-01-25T00:04:24.395Z,102646.63
2023-01-25T00:06:52.088Z,102638.81
2023-01-25T00:09:20.059Z,102639.06
2023-01-25T00:11:48.128Z,102632.97
2023-01-25T00:14:16.614Z,102637.97
2023-01-25T00:16:44.317Z,102637.97
2023-01-25T00:19:13.384Z,102632.88
2023-01-25T00:21:41.061Z,102624.13
2023-01-25T00:24:10.161Z,102626.34
2023-01-25T00:26:37.806Z,102625.47
2023-01-25T00:29:05.483Z,102626.00
2023-01-25T00:31:39.359Z,102626.41
2023-01-25T00:34:11.597Z,102621.16
2023-01-25T00:36:45.491Z,102620.13
2023-01-25T00:39:14.001Z,102611.28
2023-01-25T00:41:41.745Z,102615.63
2023-01-25T00:44:09.375Z,102619.94
2023-01-25T00:46:37.131Z,102606.88
2023-01-25T00:49:04.642Z,102606.78
2023-01-25T00:51:32.139Z,102614.22
2023-01-25T00:54:01.054Z,102611.66
2023-01-25T00:56:28.851Z,102605.63
2023-01-25T00:58:56.414Z,102616.16
2023-01-25T01:01:23.988Z,102612.19
2023-01-25T01:03:53.093Z,102612.66
2023-01-25T01:06:20.817Z,102614.28
2023-01-25T01:08:48.529Z,102614.38
2023-01-25T01:11:17.393Z,102617.78
2023-01-25T01:13:44.950Z,102613.34
2023-01-25T01:16:13.510Z,102611.66
2023-01-25T01:18:43.228Z,102610.53
2023-01-25T01:21:11.737Z,102618.63
2023-01-25T01:23:39.632Z,102619.72
2023-01-25T01:26:09.392Z,102620.50
2023-01-25T01:28:39.313Z,102612.88
2023-01-25T01:31:09.088Z,102614.47
2023-01-25T01:33:36.826Z,102616.06
2023-01-25T01:36:08.197Z,102611.59
2023-01-25T01:38:35.731Z,102606.22
2023-01-25T01:41:03.607Z,102601.47
2023-01-25T01:43:31.966Z,102593.00
2023-01-25T01:46:02.537Z,102594.84
2023-01-25T01:48:34.405Z,102602.66
2023-01-25T01:51:04.538Z,102601.16
2023-01-25T01:53:33.732Z,102601.47
2023-01-25T01:56:03.695Z,102600.53
2023-01-25T01:58:32.162Z,102585.00
2023-01-25T02:01:01.669Z,102585.88
2023-01-25T02:03:29.957Z,102585.88
2023-01-25T02:06:02.364Z,102587.38
2023-01-25T02:08:31.689Z,102583.41
2023-01-25T02:10:59.850Z,102583.31
2023-01-25T02:13:28.019Z,102578.16
2023-01-25T02:15:56.406Z,102577.06
2023-01-25T02:18:25.817Z,102575.09
2023-01-25T02:20:54.475Z,102577.06
2023-01-25T02:23:26.771Z,102576.22
2023-01-25T02:25:56.163Z,102577.06
2023-01-25T02:28:26.356Z,102576.88
2023-01-25T02:30:54.118Z,102573.31
2023-01-25T02:33:24.334Z,102571.97
2023-01-25T02:35:56.150Z,102579.88
2023-01-25T02:38:23.682Z,102571.03
2023-01-25T02:40:55.192Z,102573.16
2023-01-25T02:43:23.926Z,102582.91
2023-01-25T02:45:55.754Z,102576.38
2023-01-25T02:48:23.274Z,102579.53
2023-01-25T02:50:50.765Z,102579.44
2023-01-25T02:53:18.258Z,102577.59
2023-01-25T02:55:45.769Z,102574.34
2023-01-25T02:58:14.602Z,102575.13
2023-01-25T03:00:42.185Z,102574.78
2023-01-25T03:03:09.708Z,102566.28
2023-01-25T03:05:37.226Z,102572.25
2023-01-25T03:08:05.021Z,102564.34
2023-01-25T03:10:32.493Z,102559.69
2023-01-25T03:12:59.963Z,102560.50
2023-01-25T03:15:29.285Z,102559.44
2023-01-25T03:17:56.935Z,102547.44
2023-01-25T03:20:24.422Z,102557.97
2023-01-25T03:22:51.921Z,102559.09
2023-01-25T03:25:19.389Z,102555.84
2023-01-25T03:27:46.897Z,102546.38
2023-01-25T03:30:14.525Z,102543.31
2023-01-25T03:32:43.407Z,102542.47
2023-01-25T03:35:10.939Z,102537.88
2023-01-25T03:37:38.473Z,102544.91
2023-01-25T03:40:07.297Z,102531.28
2023-01-25T03:42:34.911Z,102538.13
2023-01-25T03:45:02.432Z,102536.78
2023-01-25T03:47:29.949Z,102534.16
2023-01-25T03:49:58.773Z,102529.84
2023-01-25T03:52:27.327Z,102531.28
2023-01-25T03:54:54.789Z,102523.38
2023-01-25T03:57:22.270Z,102530.66
2023-01-25T03:59:49.781Z,102529.59
2023-01-25T04:02:17.341Z,102530.66
2023-01-25T04:04:44.840Z,102529.84
2023-01-25T04:07:13.668Z,102532.97
2023-01-25T04:09:41.110Z,102531.09
2023-01-25T04:12:08.722Z,102530.50
2023-01-25T04:14:44.243Z,102525.16
2023-01-25T04:17:12.900Z,102531.63
2023-01-25T04:19:40.565Z,102529.00
2023-01-25T04:22:08.909Z,102527.56
2023-01-25T04:24:37.800Z,102525.75
2023-01-25T04:27:05.454Z,102516.19
2023-01-25T04:29:41.184Z,102519.94
2023-01-25T04:32:09.512Z,102514.59
2023-01-25T04:34:37.111Z,102521.59
2023-01-25T04:37:04.666Z,102510.91
2023-01-25T04:39:32.211Z,102512.53
2023-01-25T04:42:01.048Z,102508.38
2023-01-25T04:44:28.617Z,102504.16
2023-01-25T04:46:56.131Z,102508.56
2023-01-25T04:49:23.622Z,102506.00
2023-01-25T04:51:51.155Z,102496.50
2023-01-25T04:54:18.665Z,102501.00
2023-01-25T04:56:46.184Z,102490.22
2023-01-25T04:59:15.060Z,102495.41
2023-01-25T05:01:42.595Z,102492.59
2023-01-25T05:04:10.117Z,102480.38
2023-01-25T05:06:37.674Z,102480.53
2023-01-25T05:09:05.234Z,102475.47
2023-01-25T05:11:32.766Z,102476.50
2023-01-25T05:14:00.310Z,102473.59
2023-01-25T05:16:29.219Z,102465.03
2023-01-25T05:18:57.013Z,102462.13
2023-01-25T05:21:44.619Z,102464.78
2023-01-25T05:24:12.569Z,102468.34
2023-01-25T05:26:57.930Z,102472.56
2023-01-25T05:29:25.452Z,102471.16
2023-01-25T05:31:54.672Z,102466.66
2023-01-25T05:34:22.261Z,102465.97
2023-01-25T05:36:49.929Z,102464.59
2023-01-25T05:39:17.424Z,102462.72
2023-01-25T05:41:45.018Z,102466.78
2023-01-25T05:44:12.703Z,102459.66
2023-01-25T05:46:40.241Z,102454.22
2023-01-25T05:49:09.272Z,102463.22
2023-01-25T05:51:38.326Z,102460.41
2023-01-25T05:54:06.448Z,102457.94
2023-01-25T05:56:33.940Z,102447.53
2023-01-25T05:59:02.399Z,102451.06
2023-01-25T06:01:29.982Z,102451.63
2023-01-25T06:03:57.850Z,102449.16
2023-01-25T06:06:26.792Z,102446.97
2023-01-25T06:08:54.347Z,102450.97
2023-01-25T06:11:23.895Z,102457.00
2023-01-25T06:13:51.910Z,102457.34
2023-01-25T06:16:20.395Z,102461.50
2023-01-25T06:18:47.921Z,102453.03
2023-01-25T06:21:15.482Z,102459.28
2023-01-25T06:23:45.382Z,102457.59
2023-01-25T06:26:14.618Z,102452.09
2023-01-25T06:28:42.633Z,102452.09
2023-01-25T06:31:11.570Z,102440.91
2023-01-25T06:33:39.514Z,102445.81
2023-01-25T06:36:09.122Z,102445.88
2023-01-25T06:38:36.612Z,102435.47
2023-01-25T06:41:07.649Z,102445.97
2023-01-25T06:43:36.007Z,102452.41
2023-01-25T06:46:05.281Z,102458.28
2023-01-25T06:48:33.341Z,102460.88
2023-01-25T06:51:02.327Z,102456.31
2023-01-25T06:53:31.434Z,102460.47
2023-01-25T06:56:00.228Z,102452.16
2023-01-25T06:58:30.185Z,102453.25
2023-01-25T07:01:01.398Z,102448.34
2023-01-25T07:03:28.980Z,102447.31
2023-01-25T07:06:00.184Z,102446.66
2023-01-25T07:08:27.931Z,102447.19
2023-01-25T07:10:56.460Z,102462.59
2023-01-25T07:13:24.244Z,102449.47
2023-01-25T07:15:57.560Z,102461.25
2023-01-25T07:18:25.437Z,102455.31
2023-01-25T07:20:53.300Z,102451.00
2023-01-25T07:23:21.259Z,102451.66
2023-01-25T07:25:50.838Z,102450.75
2023-01-25T07:28:18.591Z,102452.78
2023-01-25T07:30:47.038Z,102454.06
2023-01-25T07:33:15.913Z,102445.25
2023-01-25T07:35:43.533Z,102448.81
2023-01-25T07:38:12.417Z,102449.63
2023-01-25T07:40:40.783Z,102455.25
2023-01-25T07:43:08.257Z,102443.72
2023-01-25T07:45:35.797Z,102449.72
2023-01-25T07:48:09.888Z,102445.50
2023-01-25T07:50:39.454Z,102448.03
2023-01-25T07:53:06.906Z,102446.53
2023-01-25T07:55:34.612Z,102445.84
2023-01-25T07:58:02.112Z,102444.41
2023-01-25T08:00:29.745Z,102440.66
2023-01-25T08:02:57.194Z,102444.06
2023-01-25T08:05:25.380Z,102451.09
2023-01-25T08:07:54.169Z,102443.13
2023-01-25T08:10:21.793Z,102445.41
2023-01-25T08:12:49.243Z,102449.53
2023-01-25T08:15:16.705Z,102445.31
2023-01-25T08:17:44.137Z,102446.00
2023-01-25T08:20:13.941Z,102447.94
2023-01-25T08:22:41.425Z,102443.38
2023-01-25T08:25:11.106Z,102454.63
2023-01-25T08:27:38.744Z,102444.91
2023-01-25T08:30:07.179Z,102448.91
2023-01-25T08:32:37.325Z,102449.97
2023-01-25T08:35:06.939Z,102443.59
2023-01-25T08:37:34.820Z,102440.06
2023-01-25T08:40:02.401Z,102440.63
2023-01-25T08:42:31.205Z,102433.69
2023-01-25T08:44:58.737Z,102434.66
2023-01-25T08:47:26.691Z,102432.94
2023-01-25T08:49:55.275Z,102428.63
2023-01-25T08:52:23.070Z,102436.06
2023-01-25T08:54:50.642Z,102423.09
2023-01-25T08:57:18.275Z,102427.31
2023-01-25T08:59:47.706Z,102423.09
2023-01-25T09:02:15.222Z,102424.13
2023-01-25T09:04:42.715Z,102420.38
2023-01-25T09:07:10.212Z,102418.75
2023-01-25T09:09:37.697Z,102422.41
2023-01-25T09:12:05.979Z,102418.66
2023-01-25T09:14:33.511Z,102411.03
2023-01-25T09:17:02.346Z,102412.72
2023-01-25T09:19:29.852Z,102414.44
2023-01-25T09:21:57.366Z,102411.19
2023-01-25T09:24:24.876Z,102415.31
2023-01-25T09:26:59.365Z,102409.19
2023-01-25T09:29:27.775Z,102411.91
2023-01-25T09:31:55.346Z,102415.03
2023-01-25T09:34:24.241Z,102402.75
2023-01-25T09:36:51.736Z,102406.91
2023-01-25T09:39:20.658Z,102403.28
2023-01-25T09:42:15.008Z,102411.06
2023-01-25T09:44:54.853Z,102407.94
2023-01-25T09:47:27.160Z,102401.72
2023-01-25T09:50:20.060Z,102410.91
2023-01-25T09:53:07.751Z,102406.47
2023-01-25T09:55:35.383Z,102407.97
2023-01-25T09:58:04.284Z,102407.41
2023-01-25T10:00:35.433Z,102402.72
2023-01-25T10:03:04.990Z,102400.09
2023-01-25T10:05:37.849Z,102403.28
2023-01-25T10:08:08.479Z,102395.06
2023-01-25T10:10:39.239Z,102395.16
2023-01-25T10:13:10.846Z,102388.41
2023-01-25T10:15:41.382Z,102394.28
2023-01-25T10:18:19.160Z,102394.34
2023-01-25T10:20:53.123Z,102388.25
2023-01-25T10:23:32.108Z,102378.34
2023-01-25T10:26:00.586Z,102376.25
2023-01-25T10:28:35.279Z,102375.34
2023-01-25T10:31:06.053Z,102376.09
2023-01-25T10:33:38.012Z,102365.56
2023-01-25T10:36:08.323Z,102361.16
2023-01-25T10:38:38.691Z,102354.88
2023-01-25T10:41:09.010Z,102358.53
2023-01-25T10:43:36.459Z,102353.78
2023-01-25T10:46:04.141Z,102349.63
2023-01-25T10:48:35.394Z,102338.81
2023-01-25T10:51:02.928Z,102336.38
2023-01-25T10:53:34.195Z,102328.84
2023-01-25T10:56:23.057Z,102330.47
2023-01-25T10:58:52.062Z,102323.41
2023-01-25T11:01:27.367Z,102309.81
2023-01-25T11:03:54.908Z,102308.91
2023-01-25T11:06:34.039Z,102312.00
2023-01-25T11:09:03.558Z,102309.19
2023-01-25T11:11:40.518Z,102300.44
2023-01-25T11:14:16.997Z,102293.31
2023-01-25T11:16:47.254Z,102293.50
2023-01-25T11:19:27.724Z,102295.69
2023-01-25T11:21:57.728Z,102286.00
2023-01-25T11:24:29.480Z,102286.94
2023-01-25T11:27:14.353Z,102282.25
2023-01-25T11:29:41.865Z,102278.91
2023-01-25T11:32:20.313Z,102273.78
2023-01-25T11:34:48.308Z,102271.44
2023-01-25T11:37:26.405Z,102271.63
2023-01-25T11:40:02.327Z,102269.25
2023-01-25T11:42:35.334Z,102267.22
2023-01-25T11:45:17.683Z,102254.06
2023-01-25T11:47:55.765Z,102252.19
2023-01-25T11:50:29.263Z,102245.44
2023-01-25T11:53:04.472Z,102232.66
2023-01-25T11:55:40.918Z,102233.88
2023-01-25T11:58:19.176Z,102229.66
2023-01-25T12:00:55.793Z,102223.44
2023-01-25T12:03:37.869Z,102217.09
2023-01-25T12:06:11.602Z,102212.00
2023-01-25T12:08:48.475Z,102198.69
2023-01-25T12:11:29.358Z,102202.22
2023-01-25T12:14:02.543Z,102190.59
2023-01-25T12:16:44.057Z,102194.53
2023-01-25T12:19:25.001Z,102184.22
2023-01-25T12:22:14.342Z,102181.94
2023-01-25T12:24:46.106Z,102183.72
2023-01-25T12:27:26.132Z,102180.53
2023-01-25T12:29:57.749Z,102167.00
2023-01-25T12:32:28.065Z,102165.59
2023-01-25T12:35:04.499Z,102157.22
2023-01-25T12:37:35.406Z,102149.81
2023-01-25T12:40:06.264Z,102153.50
2023-01-25T12:42:37.739Z,102146.84
2023-01-25T12:45:11.220Z,102139.69
2023-01-25T12:47:41.747Z,102143.00
2023-01-25T12:50:15.685Z,102138.13
2023-01-25T12:52:47.220Z,102132.56
2023-01-25T12:55:17.121Z,102127.59
2023-01-25T12:57:53.291Z,102130.03
2023-01-25T13:00:24.099Z,102130.22
2023-01-25T13:03:00.581Z,102123.13
2023-01-25T13:05:30.760Z,102120.47
2023-01-25T13:08:06.667Z,102120.38
2023-01-25T13:10:36.954Z,102123.66
2023-01-25T13:13:21.411Z,102104.78
2023-01-25T13:15:49.577Z,102092.50
2023-01-25T13:18:36.527Z,102086.03
2023-01-25T13:21:06.379Z,102083.88
2023-01-25T13:23:35.375Z,102074.41
2023-01-25T13:26:44.425Z,102070.09
2023-01-25T13:29:51.739Z,102062.88
2023-01-25T13:33:04.521Z,102054.69
2023-01-25T13:35:41.754Z,102051.53
2023-01-25T13:38:32.194Z,102054.34
2023-01-25T13:41:12.926Z,102056.22
2023-01-25T13:43:45.436Z,102044.03
2023-01-25T13:46:16.404Z,102053.59
2023-01-25T13:48:53.715Z,102046.84
2023-01-25T13:51:24.073Z,102038.00
2023-01-25T13:53:59.001Z,102035.09
2023-01-25T13:56:29.331Z,102030.91
2023-01-25T13:58:56.963Z,102017.69
2023-01-25T14:01:24.517Z,102023.19
2023-01-25T14:03:54.967Z,102025.91
2023-01-25T14:06:26.299Z,102016.91
2023-01-25T14:08:56.415Z,102007.44
2023-01-25T14:11:25.645Z,102014.38
2023-01-25T14:13:57.923Z,102015.88
2023-01-25T14:16:27.392Z,102013.53
2023-01-25T14:18:55.053Z,102000.50
2023-01-25T14:21:24.233Z,101999.19
2023-01-25T14:23:52.794Z,101996.19
2023-01-25T14:26:23.095Z,101996.53
2023-01-25T14:29:01.237Z,101990.47
2023-01-25T14:31:32.749Z,101984.53
2023-01-25T14:34:02.446Z,101988.22
2023-01-25T14:36:33.125Z,101975.72
2023-01-25T14:39:03.184Z,101979.97
2023-01-25T14:41:33.785Z,101975.09
2023-01-25T14:44:03.843Z,101976.63
2023-01-25T14:46:33.110Z,101972.22
2023-01-25T14:49:25.175Z,101959.38
2023-01-25T14:51:58.747Z,101960.22
2023-01-25T14:54:27.745Z,101947.19
2023-01-25T14:56:57.426Z,101949.81
2023-01-25T14:59:28.640Z,101958.66
2023-01-25T15:01:57.814Z,101960.66
2023-01-25T15:04:25.567Z,101950.16
2023-01-25T15:06:57.404Z,101946.44
2023-01-25T15:09:38.171Z,101941.75
2023-01-25T15:12:23.008Z,101938.59
2023-01-25T15:14:52.022Z,101938.50
2023-01-25T15:17:42.954Z,101933.59
2023-01-25T15:20:35.431Z,101927.94
2023-01-25T15:23:29.720Z,101931.16
2023-01-25T15:25:58.736Z,101930.16
2023-01-25T15:28:27.785Z,101928.00
2023-01-25T15:30:57.529Z,101924.63
2023-01-25T15:33:26.836Z,101921.00
2023-01-25T15:35:54.828Z,101928.31
2023-01-25T15:38:24.957Z,101918.00
2023-01-25T15:40:52.571Z,101915.06
2023-01-25T15:43:20.812Z,101920.63
2023-01-25T15:45:50.033Z,101913.13
2023-01-25T15:48:19.646Z,101914.97
2023-01-25T15:50:47.214Z,101915.34
2023-01-25T15:53:16.086Z,101908.41
2023-01-25T15:55:46.249Z,101916.84
2023-01-25T15:58:17.572Z,101915.31
2023-01-25T16:00:45.077Z,101925.56
2023-01-25T16:03:12.958Z,101913.63
2023-01-25T16:05:40.480Z,101914.97
2023-01-25T16:08:08.279Z,101912.47
2023-01-25T16:10:35.764Z,101908.28
2023-01-25T16:13:04.648Z,101914.88
2023-01-25T16:15:32.146Z,101912.75
2023-01-25T16:17:59.884Z,101914.63
2023-01-25T16:20:27.414Z,101915.97
2023-01-25T16:22:54.912Z,101916.63
2023-01-25T16:25:22.425Z,101908.19
2023-01-25T16:27:50.462Z,101908.38
2023-01-25T16:30:23.952Z,101907.69
2023-01-25T16:32:52.622Z,101917.44
2023-01-25T16:35:20.687Z,101914.31
2023-01-25T16:37:48.412Z,101916.56
2023-01-25T16:40:24.579Z,101912.66
2023-01-25T16:42:52.355Z,101903.50
2023-01-25T16:45:21.256Z,101911.25
2023-01-25T16:47:49.933Z,101907.22
2023-01-25T16:50:18.783Z,101905.47
2023-01-25T16:52:49.039Z,101907.09
2023-01-25T16:55:17.374Z,101903.75
2023-01-25T16:57:45.840Z,101894.06
2023-01-25T17:00:14.814Z,101899.59
2023-01-25T17:02:58.221Z,101892.63
2023-01-25T17:05:32.847Z,101898.31
2023-01-25T17:08:00.567Z,101887.03
2023-01-25T17:10:28.913Z,101880.91
2023-01-25T17:12:56.627Z,101878.81
2023-01-25T17:15:24.178Z,101879.88
2023-01-25T17:17:53.177Z,101876.00
2023-01-25T17:20:20.897Z,101871.41
2023-01-25T17:22:51.134Z,101879.16
2023-01-25T17:25:19.079Z,101872.69
2023-01-25T17:27:46.965Z,101867.53
2023-01-25T17:30:15.533Z,101857.38
2023-01-25T17:32:43.333Z,101860.53
2023-01-25T17:35:12.326Z,101853.31
2023-01-25T17:37:41.175Z,101857.13
2023-01-25T17:40:11.291Z,101859.13
2023-01-25T17:42:39.222Z,101847.38
2023-01-25T17:45:08.462Z,101853.97
2023-01-25T17:47:36.331Z,101848.56
2023-01-25T17:50:03.972Z,101844.78
2023-01-25T17:52:33.047Z,101844.59
2023-01-25T17:55:00.731Z,101840.88
2023-01-25T17:57:31.250Z,101835.06
2023-01-25T17:59:59.110Z,101830.94
2023-01-25T18:02:26.703Z,101818.53
2023-01-25T18:04:54.389Z,101828.00
2023-01-25T18:07:22.264Z,101827.59
2023-01-25T18:09:51.252Z,101822.00
2023-01-25T18:12:20.508Z,101827.91
2023-01-25T18:14:48.485Z,101822.25
2023-01-25T18:17:17.237Z,101815.16
2023-01-25T18:19:45.970Z,101804.47
2023-01-25T18:22:13.934Z,101801.09
2023-01-25T18:24:42.642Z,101795.44
2023-01-25T18:27:19.363Z,101793.56
2023-01-25T18:29:50.460Z,101801.34
2023-01-25T18:32:18.031Z,101798.75
2023-01-25T18:34:46.774Z,101796.09
2023-01-25T18:37:20.761Z,101788.72
2023-01-25T18:39:49.835Z,101785.44
2023-01-25T18:42:19.311Z,101789.78
2023-01-25T18:44:48.441Z,101790.69
2023-01-25T18:47:18.634Z,101789.72
2023-01-25T18:49:46.780Z,101780.16
2023-01-25T18:52:14.394Z,101762.03
2023-01-25T18:54:41.942Z,101774.22
2023-01-25T18:57:10.717Z,101767.09
2023-01-25T18:59:40.132Z,101764.97
2023-01-25T19:02:08.372Z,101762.25
2023-01-25T19:04:35.978Z,101765.78
2023-01-25T19:07:04.063Z,101769.88
2023-01-25T19:09:31.837Z,101769.13
2023-01-25T19:11:59.862Z,101763.91
2023-01-25T19:14:27.692Z,101769.28
2023-01-25T19:16:56.812Z,101762.09
2023-01-25T19:19:24.637Z,101755.69
2023-01-25T19:21:52.223Z,101746.63
2023-01-25T19:24:20.854Z,101756.53
2023-01-25T19:26:48.601Z,101750.16
2023-01-25T19:29:16.459Z,101740.03
2023-01-25T19:31:44.092Z,101743.06
2023-01-25T19:34:13.021Z,101740.91
2023-01-25T19:36:45.678Z,101736.13
2023-01-25T19:39:13.303Z,101733.19
2023-01-25T19:41:41.081Z,101738.88
2023-01-25T19:44:11.620Z,101735.53
2023-01-25T19:46:39.533Z,101726.09
2023-01-25T19:49:08.919Z,101726.28
2023-01-25T19:51:39.704Z,101728.22
2023-01-25T19:54:08.868Z,101727.09
2023-01-25T19:56:38.885Z,101723.63
2023-01-25T19:59:08.453Z,101717.38
2023-01-25T20:01:36.572Z,101713.81
2023-01-25T20:04:06.266Z,101708.91
2023-01-25T20:06:34.125Z,101702.75
2023-01-25T20:09:05.651Z,101699.06
2023-01-25T20:11:34.635Z,101702.09
2023-01-25T20:14:04.140Z,101702.56
2023-01-25T20:16:32.292Z,101700.88
2023-01-25T20:19:00.755Z,101695.22
2023-01-25T20:21:33.808Z,101693.53
2023-01-25T20:24:05.640Z,101690.13
2023-01-25T20:26:36.545Z,101689.63
2023-01-25T20:29:04.923Z,101693.44
2023-01-25T20:31:34.443Z,101691.69
2023-01-25T20:34:03.616Z,101682.38
2023-01-25T20:36:32.747Z,101682.78
2023-01-25T20:39:00.396Z,101688.41
2023-01-25T20:41:29.561Z,101684.88
2023-01-25T20:44:00.762Z,101680.38
2023-01-25T20:46:29.408Z,101686.09
2023-01-25T20:48:57.198Z,101689.50
2023-01-25T20:51:24.789Z,101688.41
2023-01-25T20:53:54.469Z,101687.94
2023-01-25T20:56:22.713Z,101691.72
2023-01-25T20:58:51.847Z,101683.53
2023-01-25T21:01:20.958Z,101679.78
2023-01-25T21:03:49.329Z,101664.31
2023-01-25T21:06:17.394Z,101672.28
2023-01-25T21:08:45.392Z,101676.56
2023-01-25T21:11:13.419Z,101663.28
2023-01-25T21:13:41.241Z,101663.88
2023-01-25T21:16:13.105Z,101666.00
2023-01-25T21:18:42.212Z,101667.91
2023-01-25T21:21:12.258Z,101671.81
2023-01-25T21:23:41.829Z,101655.66
2023-01-25T21:26:11.928Z,101654.13
2023-01-25T21:28:39.645Z,101650.22
2023-01-25T21:31:13.464Z,101643.19
2023-01-25T21:33:41.611Z,101644.03
2023-01-25T21:36:11.498Z,101638.03
2023-01-25T21:38:39.845Z,101633.50
2023-01-25T21:41:12.103Z,101633.13
2023-01-25T21:43:53.635Z,101631.66
2023-01-25T21:46:26.328Z,101630.81
2023-01-25T21:49:11.982Z,101635.97
2023-01-25T21:51:46.880Z,101635.13
2023-01-25T21:54:15.487Z,101634.50
2023-01-25T21:56:43.173Z,101629.66
2023-01-25T21:59:10.758Z,101636.63
2023-01-25T22:01:40.519Z,101622.56
2023-01-25T22:04:08.075Z,101620.53
2023-01-25T22:06:35.740Z,101609.72
2023-01-25T22:09:04.244Z,101601.34
2023-01-25T22:11:32.281Z,101602.47
2023-01-25T22:14:01.049Z,101597.34
2023-01-25T22:16:30.279Z,101580.66
2023-01-25T22:19:00.084Z,101576.16
2023-01-25T22:21:30.725Z,101570.00
2023-01-25T22:23:58.935Z,101572.28
2023-01-25T22:26:27.905Z,101573.28
2023-01-25T22:28:56.871Z,101573.66
2023-01-25T22:31:25.822Z,101563.91
2023-01-25T22:33:55.408Z,101558.66
2023-01-25T22:36:26.091Z,101548.56
2023-01-25T22:38:53.740Z,101546.88
2023-01-25T22:41:22.762Z,101559.66
2023-01-25T22:43:50.526Z,101552.31
2023-01-25T22:46:19.806Z,101559.38
2023-01-25T22:48:47.628Z,101550.75
2023-01-25T22:51:17.252Z,101550.94
2023-01-25T22:53:46.322Z,101561.81
2023-01-25T22:56:15.291Z,101556.19
2023-01-25T22:58:44.599Z,101558.81
2023-01-25T23:01:13.771Z,101553.72
2023-01-25T23:03:41.580Z,101542.47
2023-01-25T23:06:11.600Z,101530.16
2023-01-25T23:08:39.584Z,101529.72
2023-01-25T23:11:10.008Z,101538.44
2023-01-25T23:13:37.652Z,101527.91
2023-01-25T23:16:06.537Z,101534.66
2023-01-25T23:18:51.801Z,101535.97
2023-01-25T23:21:20.958Z,101533.44
2023-01-25T23:23:48.734Z,101527.03
2023-01-25T23:26:17.733Z,101530.16
2023-01-25T23:28:50.629Z,101520.22
2023-01-25T23:31:18.587Z,101522.94
2023-01-25T23:33:46.640Z,101519.56
2023-01-25T23:36:15.862Z,101513.69
2023-01-25T23:38:44.225Z,101507.09
2023-01-25T23:41:11.724Z,101506.56
2023-01-25T23:43:40.930Z,101503.63
2023-01-25T23:46:08.859Z,101500.56
2023-01-25T23:48:36.822Z,101497.03
2023-01-25T23:51:04.546Z,101485.16
2023-01-25T23:53:32.391Z,101487.47
2023-01-25T23:56:02.015Z,101482.03
2023-01-25T23:58:30.152Z,101478.66
